Terminal Aerodrome Forecast
Issued by NWS Twin Cities, MN

Home | Current Version | Previous Version | Graphics & Text | Print | Product List | Glossary On
Versions: 1 2 3 4 5 6 7 8 9 10 11 12 13 14 15 16
064
FTUS43 KMPX 261733
TAFEAU
TAF
KEAU 261733Z 2618/2718 07011KT P6SM OVC015
     FM262100 08011KT P6SM OVC020
     FM270000 09009KT P6SM OVC035
     FM270400 08011KT P6SM SCT040 BKN120
     FM271400 08015G23KT P6SM SCT050 BKN120=

USA.gov is the U.S. government's official web portal to all federal, state and local government web resources and services.